Detalii statie AGRONICOLESCU [00001CFA]

Toti senzorii

Date Temperatura solului [C]Precipitatii [mm]Voltaj baterie [mV]Leaf Wetness [Min]HC Air temperature [C]HC Relative humidity [%]Punctul de roua [C]
medieminmaxsumaultimatimpmedieminmaxmediemediemin
2019-10-19 23:00:00 0 7010 11.9 11.33 12.84 82.98 8.6 0.1
2019-10-20 00:00:00 0 7000 10.83 10.42 11.25 96.54 10.1 6.4
2019-10-20 01:00:00 0 7000 10.01 9.59 10.44 93.67 8.8 6.3
2019-10-20 02:00:00 0 7000 9.24 9.03 9.52 100 9.1 9
2019-10-20 03:00:00 0 6972 9.99 9.31 10.75 94.46 8.9 1.7
2019-10-20 04:00:00 0 6982 11.47 10.88 12.01 94.86 10.5 4.9
2019-10-20 05:00:00 0 6972 11.87 11.71 11.99 100 11.8 11.7
2019-10-20 06:00:00 0 6962 11.58 11.36 11.85 100 11.5 11.3
2019-10-20 07:00:00 0 6952 11.67 11.3 11.9 100 11.6 11.3
2019-10-20 08:00:00 0 6942 11.33 11.24 11.43 100 11.2 11.2
2019-10-20 09:00:00 0 7060 10.98 10.75 11.29 100 10.9 10.7
2019-10-20 10:00:00 0 7246 11.98 11.46 12.56 100 11.9 11.4
2019-10-20 11:00:00 0 7264 13.07 12.46 13.58 75 0
2019-10-20 12:00:00 0 7294 13.97 13.53 14.42 36.08 -10.1 0
2019-10-20 13:00:00 0 7372 14.52 14.06 15.15 8.33 0
2019-10-20 14:00:00 0 7392 16.87 14.96 19.15 0 0 0
2019-10-20 15:00:00 0 7392 20.15 19.34 21.05 38.07 0
2019-10-20 16:00:00 0 7392 22.09 21 23.11 0.8 -3.6 0
2019-10-20 17:00:00 0 7382 23.22 22.97 23.53 0 0 0
2019-10-20 18:00:00 0 7324 22.47 20.94 23.41 39.46 7.7 6.6
2019-10-20 19:00:00 0 7216 19.38 17.59 21.16 53.1 9.3 8.5
2019-10-20 20:00:00 0 7138 16.31 15.32 17.21 83.11 13.2 10.1
2019-10-20 21:00:00 0 7050 14.73 14.38 15.24 92.33 13.3 10.7
2019-10-20 22:00:00 0 7020 13.28 12.66 14.34 92.9 12 10.9
2019-10-20 23:00:00 0 7000 12.64 12.32 12.93 100 12.5 12.3
2019-10-21 00:00:00 0 7010 11.63 10.82 12.18 100 11.5 10.8
2019-10-21 01:00:00 0 7000 11.05 10.93 11.16 100 11 10.9
2019-10-21 02:00:00 0 7010 10.61 9.81 11.2 100 10.5 9.8
2019-10-21 03:00:00 0 7000 9.39 8.56 10.3 100 9.3 8.5
2019-10-21 04:00:00 0 6992 8.65 8.48 8.87 100 8.6 8.4
2019-10-21 05:00:00 0 6982 8.26 7.82 8.65 100 8.2 7.8
2019-10-21 06:00:00 0 6982 7.79 7.71 7.91 100 7.7 7.7
2019-10-21 07:00:00 0 6972 7.7 7.54 7.98 100 7.6 7.5
2019-10-21 08:00:00 0 6972 8.3 7.84 8.53 100 8.2 7.8
2019-10-21 09:00:00 0 7020 9.45 8.55 10.31 100 9.3 8.5
2019-10-21 10:00:00 0 7138 11.35 10.59 12.06 100 11.3 10.5
2019-10-21 11:00:00 0 7226 12.46 12.1 12.92 100 12.4 12.1
2019-10-21 12:00:00 0 7304 13.23 12.77 13.46 100 13.1 12.7
2019-10-21 13:00:00 0 7342 13.75 13.24 14.15 100 13.7 13.2
2019-10-21 14:00:00 0 7392 14.5 14.06 15.03 100 14.4 14
2019-10-21 15:00:00 0 7392 16.86 14.82 18.79 90.92 15.1 12.5
2019-10-21 16:00:00 0 7402 18.38 17.75 19.24 0 0 0
2019-10-21 17:00:00 0 7382 19.35 19.1 19.77 0.84 0
2019-10-21 18:00:00 0 7324 18.78 17.85 19.36 0.24 0
2019-10-21 19:00:00 0 7148 15.84 14.21 17.67 8.4 -0.9 0
2019-10-21 20:00:00 0 7000 13.36 12.99 13.97 52.17 0
2019-10-21 21:00:00 0 7010 12.86 12.1 13.79 100 12.8 12.1